createdAt,value
2018-03-26T00:01:17.194Z,6.30
2018-03-26T00:06:19.818Z,6.30
2018-03-26T00:11:22.450Z,6.20
2018-03-26T00:16:25.083Z,6.20
2018-03-26T00:21:27.701Z,6.20
2018-03-26T00:26:31.093Z,6.20
2018-03-26T00:31:33.717Z,6.10
2018-03-26T00:36:37.135Z,5.50
2018-03-26T00:41:39.762Z,5.50
2018-03-26T00:46:42.384Z,5.50
2018-03-26T00:51:45.788Z,5.40
2018-03-26T05:29:57.445Z,4.70
2018-03-26T05:35:00.065Z,4.70
2018-03-26T05:40:02.734Z,4.70
2018-03-26T05:45:05.356Z,4.70
2018-03-26T05:50:07.978Z,4.70
2018-03-26T05:55:10.603Z,4.70
2018-03-26T06:00:13.237Z,4.70
2018-03-26T06:05:15.885Z,4.70
2018-03-26T06:10:19.280Z,4.70
2018-03-26T06:15:23.218Z,4.70
2018-03-26T06:20:25.845Z,4.70
2018-03-26T06:25:29.251Z,4.80
2018-03-26T06:30:31.919Z,4.80
2018-03-26T06:35:34.545Z,4.80
2018-03-26T06:40:37.169Z,5.00
2018-03-26T06:45:39.793Z,5.00
2018-03-26T06:50:43.202Z,5.00
2018-03-26T06:55:45.832Z,5.00
2018-03-26T07:00:48.456Z,5.10
2018-03-26T07:05:51.150Z,5.10
2018-03-26T07:10:54.539Z,5.10
2018-03-26T07:15:57.174Z,5.20
2018-03-26T07:20:59.797Z,5.20
2018-03-26T07:26:02.430Z,5.30
2018-03-26T07:31:05.053Z,5.30
2018-03-26T07:36:08.442Z,5.50
2018-03-26T07:41:11.094Z,5.50
2018-03-26T07:46:13.724Z,5.70
2018-03-26T07:51:16.381Z,5.80
2018-03-26T07:56:19.009Z,6.00
2018-03-26T08:01:21.663Z,6.10
2018-03-26T08:06:25.058Z,6.30
2018-03-26T08:11:27.721Z,6.20
2018-03-26T08:16:30.331Z,6.30
2018-03-26T08:21:32.962Z,6.50
2018-03-26T08:26:36.348Z,6.60
2018-03-26T08:31:38.976Z,6.60
2018-03-26T08:36:42.381Z,6.70
2018-03-26T08:41:45.011Z,6.70
2018-03-26T08:46:47.629Z,6.70
2018-03-26T08:51:50.263Z,6.80
2018-03-26T08:56:52.887Z,6.80
2018-03-26T09:01:57.006Z,6.80
2018-03-26T09:06:59.647Z,6.80
2018-03-26T09:12:02.304Z,6.80
2018-03-26T09:17:05.715Z,6.80
2018-03-26T09:22:08.350Z,6.70
2018-03-26T09:27:10.974Z,6.80
2018-03-26T09:32:16.614Z,6.80
2018-03-26T09:37:19.279Z,6.80
2018-03-26T09:42:21.929Z,6.80
2018-03-26T09:47:24.549Z,6.70
2018-03-26T09:52:27.938Z,6.70
2018-03-26T09:57:30.569Z,6.60
2018-03-26T10:02:34.638Z,6.70
2018-03-26T10:07:38.362Z,6.60
2018-03-26T10:12:42.191Z,6.60
2018-03-26T10:17:44.907Z,6.60
2018-03-26T10:22:47.534Z,6.60
2018-03-26T10:27:50.181Z,6.60
2018-03-26T10:32:52.821Z,6.60
2018-03-26T10:37:55.466Z,6.60
2018-03-26T10:42:58.102Z,6.60
2018-03-26T10:48:00.757Z,6.70
2018-03-26T10:53:03.387Z,6.70
2018-03-26T10:58:06.917Z,6.80
2018-03-26T11:03:09.547Z,6.80
2018-03-26T11:08:12.199Z,6.80
2018-03-26T11:13:14.856Z,6.80
2018-03-26T11:18:17.486Z,6.90
2018-03-26T11:23:20.162Z,6.90
2018-03-26T11:28:22.838Z,6.90
2018-03-26T11:33:25.498Z,6.90
2018-03-26T11:38:28.124Z,6.80
2018-03-26T11:43:30.745Z,6.80
2018-03-26T11:48:33.366Z,6.80
2018-03-26T11:53:36.016Z,6.90
2018-03-26T11:58:38.638Z,7.10
2018-03-26T12:03:41.266Z,7.30
2018-03-26T12:08:43.889Z,7.30
2018-03-26T12:13:46.541Z,7.30
2018-03-26T12:18:49.929Z,7.20
2018-03-26T12:24:04.504Z,7.20
2018-03-26T12:29:18.943Z,7.20
2018-03-26T12:34:33.551Z,7.30
2018-03-26T12:39:36.178Z,7.50
2018-03-26T12:44:51.915Z,7.60
2018-03-26T12:49:54.533Z,7.70
2018-03-26T12:54:57.914Z,7.70
2018-03-26T13:00:00.543Z,7.70
2018-03-26T13:05:03.168Z,7.80
2018-03-26T13:10:05.875Z,7.80
2018-03-26T13:15:08.502Z,7.90
2018-03-26T13:20:11.126Z,8.00
2018-03-26T13:25:13.746Z,8.30
2018-03-26T13:30:16.369Z,8.70
2018-03-26T13:35:18.986Z,8.90
2018-03-26T13:40:23.313Z,8.90
2018-03-26T13:45:27.848Z,8.80
2018-03-26T13:50:31.229Z,9.10
2018-03-26T13:55:35.106Z,9.20
2018-03-26T14:00:38.500Z,9.40
2018-03-26T14:05:41.417Z,9.40
2018-03-26T14:10:56.803Z,10.00
2018-03-26T14:16:13.008Z,10.20
2018-03-26T14:21:15.646Z,10.20
2018-03-26T14:26:18.273Z,10.10
2018-03-26T14:31:21.959Z,10.10
2018-03-26T14:36:24.585Z,10.10
2018-03-26T14:41:28.744Z,10.00
2018-03-26T14:46:32.504Z,10.20
2018-03-26T14:51:35.893Z,9.80
2018-03-26T14:56:38.537Z,9.80
2018-03-26T15:01:41.162Z,9.50
2018-03-26T15:06:44.592Z,9.40
2018-03-26T15:11:48.012Z,9.40
2018-03-26T15:16:50.632Z,9.40
2018-03-26T15:21:54.049Z,9.30
2018-03-26T15:26:56.674Z,9.20
2018-03-26T15:31:59.296Z,9.10
2018-03-26T15:37:02.685Z,9.50
2018-03-26T15:42:05.298Z,9.50
2018-03-26T15:47:08.883Z,9.70
2018-03-26T15:52:12.268Z,9.30
2018-03-26T15:57:14.898Z,9.30
2018-03-26T16:02:17.530Z,8.90
2018-03-26T16:07:20.908Z,8.30
2018-03-26T16:12:24.346Z,7.90
2018-03-26T16:17:27.010Z,7.90
2018-03-26T16:22:30.535Z,7.30
2018-03-26T16:27:33.156Z,7.30
2018-03-26T16:32:37.709Z,7.10
2018-03-26T16:37:41.105Z,6.50
2018-03-26T16:42:44.556Z,6.50
2018-03-26T16:47:47.945Z,6.00
2018-03-26T16:52:51.329Z,5.80
2018-03-26T16:57:53.956Z,5.70
2018-03-26T17:02:56.568Z,5.50
2018-03-26T17:07:59.194Z,5.20
2018-03-26T17:13:01.819Z,5.00
2018-03-26T17:18:04.447Z,4.80
2018-03-26T17:23:07.097Z,4.60
2018-03-26T17:28:09.709Z,4.40
2018-03-26T17:33:13.140Z,4.20
2018-03-26T17:38:16.207Z,4.20
2018-03-26T17:43:18.869Z,4.00
2018-03-26T17:48:21.556Z,3.90
2018-03-26T17:53:24.489Z,3.80
2018-03-26T17:58:27.241Z,3.60
2018-03-26T18:03:29.886Z,3.50
2018-03-26T18:08:33.277Z,3.30
2018-03-26T18:13:35.912Z,3.30
2018-03-26T18:18:38.525Z,3.20
2018-03-26T18:23:42.009Z,3.10
2018-03-26T18:28:45.486Z,3.10
2018-03-26T18:33:48.125Z,3.00
2018-03-26T18:38:51.505Z,3.00
2018-03-26T18:43:54.315Z,3.00
2018-03-26T18:48:57.750Z,3.00
2018-03-26T18:54:00.376Z,3.00
2018-03-26T18:59:03.137Z,3.10
2018-03-26T19:04:05.863Z,3.50
2018-03-26T19:09:08.506Z,3.70
2018-03-26T19:14:11.124Z,3.80
2018-03-26T19:19:13.749Z,3.80
2018-03-26T19:24:16.374Z,3.70
2018-03-26T19:29:19.013Z,3.80
2018-03-26T19:34:21.641Z,3.80
2018-03-26T19:39:24.257Z,3.80
2018-03-26T19:44:26.911Z,3.80
2018-03-26T19:49:30.346Z,3.90
2018-03-26T19:54:33.017Z,3.80
2018-03-26T19:59:35.629Z,3.80
2018-03-26T20:04:38.261Z,3.80
2018-03-26T20:09:40.877Z,3.80
2018-03-26T20:14:44.289Z,3.80
2018-03-26T20:19:46.934Z,3.70
2018-03-26T20:24:49.558Z,3.70
2018-03-26T20:29:54.083Z,3.70
2018-03-26T20:34:56.730Z,3.60
2018-03-26T20:39:59.346Z,3.60
2018-03-26T20:45:02.050Z,3.60
2018-03-26T20:50:04.701Z,3.60
2018-03-26T20:55:07.384Z,3.50
2018-03-26T21:00:10.756Z,3.40
2018-03-26T21:05:13.402Z,3.40
2018-03-26T21:10:16.026Z,3.30
2018-03-26T21:15:18.670Z,3.40
2018-03-26T21:20:22.106Z,3.30
2018-03-26T21:25:24.740Z,3.30
2018-03-26T21:30:27.360Z,3.30
2018-03-26T21:35:30.034Z,3.40
2018-03-26T21:40:32.652Z,3.40
2018-03-26T21:45:35.297Z,3.30
2018-03-26T21:50:37.918Z,3.40
2018-03-26T21:55:41.317Z,3.30
2018-03-26T22:00:43.955Z,3.30
2018-03-26T22:05:46.593Z,3.30
2018-03-26T22:10:49.209Z,3.30
2018-03-26T22:15:51.846Z,3.30
2018-03-26T22:20:54.482Z,3.20
2018-03-26T22:25:57.097Z,3.10
2018-03-26T22:30:59.742Z,3.20
2018-03-26T22:36:02.380Z,3.30
2018-03-26T22:41:04.994Z,3.20
2018-03-26T22:46:08.420Z,2.90
2018-03-26T22:51:11.053Z,2.80
2018-03-26T22:56:13.743Z,2.90
2018-03-26T23:01:16.334Z,2.90
2018-03-26T23:06:18.980Z,2.80
2018-03-26T23:11:21.604Z,2.80
2018-03-26T23:16:24.229Z,2.90
2018-03-26T23:21:26.862Z,2.90
2018-03-26T23:26:29.529Z,2.80
2018-03-26T23:31:32.156Z,2.70
2018-03-26T23:36:34.764Z,2.70
2018-03-26T23:41:37.389Z,2.70
2018-03-26T23:46:40.802Z,2.70
2018-03-26T23:51:43.437Z,2.70
2018-03-26T23:56:46.821Z,2.30
